sensor_id;sensor_type;location;lat;lon;timestamp;P1;durP1;ratioP1;P2;durP2;ratioP2
31808;SDS011;18379;48.208;-1.518;2022-12-18T00:02:27;72.27;;;34.90;;
31808;SDS011;18379;48.208;-1.518;2022-12-18T00:07:28;49.23;;;25.03;;
31808;SDS011;18379;48.208;-1.518;2022-12-18T00:12:29;43.10;;;22.30;;
31808;SDS011;18379;48.208;-1.518;2022-12-18T00:17:30;45.50;;;22.77;;
31808;SDS011;18379;48.208;-1.518;2022-12-18T00:22:30;38.17;;;21.17;;
31808;SDS011;18379;48.208;-1.518;2022-12-18T00:27:31;46.20;;;23.37;;
31808;SDS011;18379;48.208;-1.518;2022-12-18T00:32:32;42.27;;;22.03;;
31808;SDS011;18379;48.208;-1.518;2022-12-18T00:37:33;39.67;;;21.53;;
31808;SDS011;18379;48.208;-1.518;2022-12-18T00:42:34;47.43;;;23.30;;
31808;SDS011;18379;48.208;-1.518;2022-12-18T00:47:55;59.93;;;28.00;;
31808;SDS011;18379;48.208;-1.518;2022-12-18T00:52:57;52.67;;;26.70;;
31808;SDS011;18379;48.208;-1.518;2022-12-18T00:57:57;52.23;;;26.13;;
31808;SDS011;18379;48.208;-1.518;2022-12-18T01:02:58;48.60;;;24.53;;
31808;SDS011;18379;48.208;-1.518;2022-12-18T01:07:59;40.97;;;22.67;;
31808;SDS011;18379;48.208;-1.518;2022-12-18T01:13:00;46.07;;;25.47;;
31808;SDS011;18379;48.208;-1.518;2022-12-18T01:18:01;46.13;;;22.30;;
31808;SDS011;18379;48.208;-1.518;2022-12-18T01:23:01;46.93;;;22.73;;
31808;SDS011;18379;48.208;-1.518;2022-12-18T01:28:02;44.70;;;23.53;;
31808;SDS011;18379;48.208;-1.518;2022-12-18T01:33:04;41.53;;;22.37;;
31808;SDS011;18379;48.208;-1.518;2022-12-18T01:38:05;52.37;;;24.30;;
31808;SDS011;18379;48.208;-1.518;2022-12-18T01:43:08;47.03;;;23.67;;
31808;SDS011;18379;48.208;-1.518;2022-12-18T01:48:15;52.27;;;25.83;;
31808;SDS011;18379;48.208;-1.518;2022-12-18T01:53:17;50.53;;;25.67;;
31808;SDS011;18379;48.208;-1.518;2022-12-18T01:58:23;50.70;;;26.27;;
31808;SDS011;18379;48.208;-1.518;2022-12-18T02:03:30;48.40;;;24.20;;
31808;SDS011;18379;48.208;-1.518;2022-12-18T02:08:36;45.83;;;23.10;;
31808;SDS011;18379;48.208;-1.518;2022-12-18T02:13:46;49.63;;;23.20;;
31808;SDS011;18379;48.208;-1.518;2022-12-18T02:18:58;48.57;;;25.37;;
31808;SDS011;18379;48.208;-1.518;2022-12-18T02:29:18;42.83;;;21.67;;
31808;SDS011;18379;48.208;-1.518;2022-12-18T02:34:30;51.53;;;26.07;;
31808;SDS011;18379;48.208;-1.518;2022-12-18T02:39:35;45.00;;;22.30;;
31808;SDS011;18379;48.208;-1.518;2022-12-18T02:44:42;48.87;;;24.63;;
31808;SDS011;18379;48.208;-1.518;2022-12-18T02:49:50;49.77;;;24.60;;
31808;SDS011;18379;48.208;-1.518;2022-12-18T03:00:18;41.57;;;22.63;;
31808;SDS011;18379;48.208;-1.518;2022-12-18T03:05:39;50.53;;;25.53;;
31808;SDS011;18379;48.208;-1.518;2022-12-18T03:10:48;46.73;;;24.60;;
31808;SDS011;18379;48.208;-1.518;2022-12-18T03:16:03;46.50;;;23.60;;
31808;SDS011;18379;48.208;-1.518;2022-12-18T03:21:10;43.97;;;23.00;;
31808;SDS011;18379;48.208;-1.518;2022-12-18T03:26:15;43.93;;;22.87;;
31808;SDS011;18379;48.208;-1.518;2022-12-18T03:31:17;48.33;;;23.97;;
31808;SDS011;18379;48.208;-1.518;2022-12-18T03:36:22;52.00;;;25.63;;
31808;SDS011;18379;48.208;-1.518;2022-12-18T03:41:27;52.47;;;26.33;;
31808;SDS011;18379;48.208;-1.518;2022-12-18T03:46:51;44.37;;;23.10;;
31808;SDS011;18379;48.208;-1.518;2022-12-18T03:52:03;50.87;;;26.00;;
31808;SDS011;18379;48.208;-1.518;2022-12-18T03:57:18;42.63;;;22.87;;
31808;SDS011;18379;48.208;-1.518;2022-12-18T04:02:21;77.70;;;40.63;;
31808;SDS011;18379;48.208;-1.518;2022-12-18T04:07:24;44.53;;;24.47;;
31808;SDS011;18379;48.208;-1.518;2022-12-18T04:12:26;49.33;;;25.83;;
31808;SDS011;18379;48.208;-1.518;2022-12-18T04:17:29;49.57;;;24.67;;
31808;SDS011;18379;48.208;-1.518;2022-12-18T04:22:29;56.63;;;33.93;;
31808;SDS011;18379;48.208;-1.518;2022-12-18T04:27:30;47.60;;;25.07;;
31808;SDS011;18379;48.208;-1.518;2022-12-18T04:32:32;48.63;;;26.50;;
31808;SDS011;18379;48.208;-1.518;2022-12-18T04:37:34;40.93;;;22.53;;
31808;SDS011;18379;48.208;-1.518;2022-12-18T04:42:35;40.47;;;23.03;;
31808;SDS011;18379;48.208;-1.518;2022-12-18T04:47:36;43.87;;;24.10;;
31808;SDS011;18379;48.208;-1.518;2022-12-18T04:52:36;40.47;;;22.67;;
31808;SDS011;18379;48.208;-1.518;2022-12-18T04:57:37;39.90;;;22.17;;
31808;SDS011;18379;48.208;-1.518;2022-12-18T05:02:38;40.47;;;23.40;;
31808;SDS011;18379;48.208;-1.518;2022-12-18T05:07:38;43.27;;;23.77;;
31808;SDS011;18379;48.208;-1.518;2022-12-18T05:12:39;37.00;;;22.90;;
31808;SDS011;18379;48.208;-1.518;2022-12-18T05:17:58;44.37;;;25.70;;
31808;SDS011;18379;48.208;-1.518;2022-12-18T05:22:59;46.50;;;26.83;;
31808;SDS011;18379;48.208;-1.518;2022-12-18T05:28:00;46.20;;;26.77;;
31808;SDS011;18379;48.208;-1.518;2022-12-18T05:33:01;45.67;;;25.07;;
31808;SDS011;18379;48.208;-1.518;2022-12-18T05:38:01;42.43;;;24.83;;
31808;SDS011;18379;48.208;-1.518;2022-12-18T05:43:02;36.47;;;23.20;;
31808;SDS011;18379;48.208;-1.518;2022-12-18T05:48:03;45.73;;;24.03;;
31808;SDS011;18379;48.208;-1.518;2022-12-18T05:53:04;47.07;;;24.63;;
31808;SDS011;18379;48.208;-1.518;2022-12-18T05:58:06;40.30;;;22.73;;
31808;SDS011;18379;48.208;-1.518;2022-12-18T06:03:09;40.73;;;23.30;;
31808;SDS011;18379;48.208;-1.518;2022-12-18T06:08:11;51.07;;;27.83;;
31808;SDS011;18379;48.208;-1.518;2022-12-18T06:13:13;45.77;;;28.73;;
31808;SDS011;18379;48.208;-1.518;2022-12-18T06:18:14;48.30;;;27.10;;
31808;SDS011;18379;48.208;-1.518;2022-12-18T06:23:14;41.80;;;23.60;;
31808;SDS011;18379;48.208;-1.518;2022-12-18T06:28:15;39.23;;;25.07;;
31808;SDS011;18379;48.208;-1.518;2022-12-18T06:33:16;42.13;;;25.17;;
31808;SDS011;18379;48.208;-1.518;2022-12-18T06:38:17;44.00;;;27.23;;
31808;SDS011;18379;48.208;-1.518;2022-12-18T06:43:18;44.93;;;26.77;;
31808;SDS011;18379;48.208;-1.518;2022-12-18T06:48:19;45.97;;;27.67;;
31808;SDS011;18379;48.208;-1.518;2022-12-18T06:53:20;50.07;;;28.57;;
31808;SDS011;18379;48.208;-1.518;2022-12-18T06:58:21;48.43;;;27.03;;
31808;SDS011;18379;48.208;-1.518;2022-12-18T07:03:22;48.47;;;27.97;;
31808;SDS011;18379;48.208;-1.518;2022-12-18T07:08:22;48.57;;;28.57;;
31808;SDS011;18379;48.208;-1.518;2022-12-18T07:13:23;54.03;;;29.47;;
31808;SDS011;18379;48.208;-1.518;2022-12-18T07:18:24;53.33;;;29.87;;
31808;SDS011;18379;48.208;-1.518;2022-12-18T07:23:25;56.13;;;29.07;;
31808;SDS011;18379;48.208;-1.518;2022-12-18T07:28:26;51.53;;;29.87;;
31808;SDS011;18379;48.208;-1.518;2022-12-18T07:33:26;54.00;;;30.03;;
31808;SDS011;18379;48.208;-1.518;2022-12-18T07:38:27;52.97;;;29.93;;
31808;SDS011;18379;48.208;-1.518;2022-12-18T07:43:28;60.77;;;29.00;;
31808;SDS011;18379;48.208;-1.518;2022-12-18T07:48:29;73.17;;;42.83;;
31808;SDS011;18379;48.208;-1.518;2022-12-18T07:53:30;77.97;;;43.83;;
31808;SDS011;18379;48.208;-1.518;2022-12-18T07:58:32;77.87;;;42.07;;
31808;SDS011;18379;48.208;-1.518;2022-12-18T08:03:34;59.67;;;35.57;;
31808;SDS011;18379;48.208;-1.518;2022-12-18T08:08:35;58.40;;;31.33;;
31808;SDS011;18379;48.208;-1.518;2022-12-18T08:13:37;47.50;;;28.07;;
31808;SDS011;18379;48.208;-1.518;2022-12-18T08:18:38;43.47;;;27.00;;
31808;SDS011;18379;48.208;-1.518;2022-12-18T08:23:39;61.23;;;32.07;;
31808;SDS011;18379;48.208;-1.518;2022-12-18T08:28:40;59.50;;;31.83;;
31808;SDS011;18379;48.208;-1.518;2022-12-18T08:33:41;47.60;;;29.37;;
31808;SDS011;18379;48.208;-1.518;2022-12-18T08:38:42;54.00;;;29.93;;
31808;SDS011;18379;48.208;-1.518;2022-12-18T08:43:43;58.77;;;33.20;;
31808;SDS011;18379;48.208;-1.518;2022-12-18T08:49:03;77.47;;;43.43;;
31808;SDS011;18379;48.208;-1.518;2022-12-18T08:54:05;63.30;;;37.00;;
31808;SDS011;18379;48.208;-1.518;2022-12-18T08:59:08;56.33;;;34.53;;
31808;SDS011;18379;48.208;-1.518;2022-12-18T09:04:09;70.30;;;40.50;;
31808;SDS011;18379;48.208;-1.518;2022-12-18T09:09:10;59.70;;;36.53;;
31808;SDS011;18379;48.208;-1.518;2022-12-18T09:14:11;57.20;;;33.17;;
31808;SDS011;18379;48.208;-1.518;2022-12-18T09:19:12;75.73;;;38.50;;
31808;SDS011;18379;48.208;-1.518;2022-12-18T09:24:13;54.93;;;31.87;;
31808;SDS011;18379;48.208;-1.518;2022-12-18T09:29:14;60.10;;;33.17;;
31808;SDS011;18379;48.208;-1.518;2022-12-18T09:34:16;60.63;;;33.70;;
31808;SDS011;18379;48.208;-1.518;2022-12-18T09:39:17;66.27;;;34.67;;
31808;SDS011;18379;48.208;-1.518;2022-12-18T09:44:39;76.63;;;35.90;;
31808;SDS011;18379;48.208;-1.518;2022-12-18T09:49:44;62.83;;;33.50;;
31808;SDS011;18379;48.208;-1.518;2022-12-18T09:54:52;58.20;;;32.90;;
31808;SDS011;18379;48.208;-1.518;2022-12-18T10:00:09;86.67;;;48.30;;
31808;SDS011;18379;48.208;-1.518;2022-12-18T10:11:03;111.33;;;48.63;;
31808;SDS011;18379;48.208;-1.518;2022-12-18T10:21:52;73.63;;;34.20;;
31808;SDS011;18379;48.208;-1.518;2022-12-18T10:26:59;89.13;;;47.50;;
31808;SDS011;18379;48.208;-1.518;2022-12-18T10:32:21;68.93;;;32.77;;
31808;SDS011;18379;48.208;-1.518;2022-12-18T10:37:25;104.57;;;49.60;;
31808;SDS011;18379;48.208;-1.518;2022-12-18T10:42:28;77.67;;;37.87;;
31808;SDS011;18379;48.208;-1.518;2022-12-18T10:47:31;84.77;;;47.13;;
31808;SDS011;18379;48.208;-1.518;2022-12-18T10:52:38;73.90;;;38.63;;
31808;SDS011;18379;48.208;-1.518;2022-12-18T10:57:42;68.10;;;32.90;;
31808;SDS011;18379;48.208;-1.518;2022-12-18T11:02:43;69.57;;;33.17;;
31808;SDS011;18379;48.208;-1.518;2022-12-18T11:07:48;66.60;;;36.57;;
31808;SDS011;18379;48.208;-1.518;2022-12-18T11:12:50;67.90;;;35.00;;
31808;SDS011;18379;48.208;-1.518;2022-12-18T11:17:52;67.97;;;34.03;;
31808;SDS011;18379;48.208;-1.518;2022-12-18T11:22:57;68.03;;;36.57;;
31808;SDS011;18379;48.208;-1.518;2022-12-18T11:28:01;71.60;;;39.20;;
31808;SDS011;18379;48.208;-1.518;2022-12-18T11:33:24;67.47;;;37.63;;
31808;SDS011;18379;48.208;-1.518;2022-12-18T11:38:27;57.47;;;34.07;;
31808;SDS011;18379;48.208;-1.518;2022-12-18T11:48:52;70.53;;;37.67;;
31808;SDS011;18379;48.208;-1.518;2022-12-18T11:53:59;78.83;;;39.10;;
31808;SDS011;18379;48.208;-1.518;2022-12-18T12:09:40;64.40;;;38.17;;
31808;SDS011;18379;48.208;-1.518;2022-12-18T12:20:15;69.03;;;40.77;;
31808;SDS011;18379;48.208;-1.518;2022-12-18T12:35:47;53.23;;;33.37;;
31808;SDS011;18379;48.208;-1.518;2022-12-18T12:41:05;61.90;;;36.73;;
31808;SDS011;18379;48.208;-1.518;2022-12-18T12:46:40;59.00;;;36.40;;
31808;SDS011;18379;48.208;-1.518;2022-12-18T12:51:50;54.10;;;33.57;;
31808;SDS011;18379;48.208;-1.518;2022-12-18T12:57:23;57.93;;;36.13;;
31808;SDS011;18379;48.208;-1.518;2022-12-18T13:03:12;67.83;;;41.03;;
31808;SDS011;18379;48.208;-1.518;2022-12-18T13:08:24;69.70;;;39.80;;
31808;SDS011;18379;48.208;-1.518;2022-12-18T13:14:12;69.80;;;40.70;;
31808;SDS011;18379;48.208;-1.518;2022-12-18T13:19:01;74.87;;;46.03;;
31808;SDS011;18379;48.208;-1.518;2022-12-18T13:24:15;65.07;;;37.70;;
31808;SDS011;18379;48.208;-1.518;2022-12-18T13:29:42;80.47;;;44.63;;
31808;SDS011;18379;48.208;-1.518;2022-12-18T13:34:45;55.00;;;34.43;;
31808;SDS011;18379;48.208;-1.518;2022-12-18T13:39:47;55.60;;;34.23;;
31808;SDS011;18379;48.208;-1.518;2022-12-18T13:44:48;67.60;;;38.67;;
31808;SDS011;18379;48.208;-1.518;2022-12-18T13:49:50;61.80;;;38.67;;
31808;SDS011;18379;48.208;-1.518;2022-12-18T13:54:56;63.83;;;36.57;;
31808;SDS011;18379;48.208;-1.518;2022-12-18T14:05:35;76.47;;;38.73;;
31808;SDS011;18379;48.208;-1.518;2022-12-18T14:10:43;67.07;;;35.80;;
31808;SDS011;18379;48.208;-1.518;2022-12-18T14:15:54;69.90;;;38.00;;
31808;SDS011;18379;48.208;-1.518;2022-12-18T14:20:57;81.83;;;40.10;;
31808;SDS011;18379;48.208;-1.518;2022-12-18T14:26:02;85.37;;;43.83;;
31808;SDS011;18379;48.208;-1.518;2022-12-18T14:31:30;85.97;;;43.23;;
31808;SDS011;18379;48.208;-1.518;2022-12-18T14:36:34;78.60;;;44.13;;
31808;SDS011;18379;48.208;-1.518;2022-12-18T14:41:35;71.47;;;39.77;;
31808;SDS011;18379;48.208;-1.518;2022-12-18T14:46:43;89.60;;;42.30;;
31808;SDS011;18379;48.208;-1.518;2022-12-18T14:51:49;83.20;;;41.57;;
31808;SDS011;18379;48.208;-1.518;2022-12-18T15:07:26;69.70;;;40.90;;
31808;SDS011;18379;48.208;-1.518;2022-12-18T15:12:47;70.77;;;39.63;;
31808;SDS011;18379;48.208;-1.518;2022-12-18T15:18:00;65.20;;;41.23;;
31808;SDS011;18379;48.208;-1.518;2022-12-18T15:23:02;70.53;;;40.13;;
31808;SDS011;18379;48.208;-1.518;2022-12-18T15:28:19;61.17;;;36.90;;
31808;SDS011;18379;48.208;-1.518;2022-12-18T15:33:45;57.70;;;35.60;;
31808;SDS011;18379;48.208;-1.518;2022-12-18T15:38:54;65.23;;;38.60;;
31808;SDS011;18379;48.208;-1.518;2022-12-18T15:44:15;72.60;;;40.57;;
31808;SDS011;18379;48.208;-1.518;2022-12-18T15:49:23;69.00;;;39.57;;
31808;SDS011;18379;48.208;-1.518;2022-12-18T15:54:25;62.60;;;39.27;;
31808;SDS011;18379;48.208;-1.518;2022-12-18T15:59:48;56.67;;;36.77;;
31808;SDS011;18379;48.208;-1.518;2022-12-18T16:04:50;62.90;;;41.47;;
31808;SDS011;18379;48.208;-1.518;2022-12-18T16:09:57;55.73;;;38.03;;
31808;SDS011;18379;48.208;-1.518;2022-12-18T16:14:58;58.50;;;37.60;;
31808;SDS011;18379;48.208;-1.518;2022-12-18T16:19:59;57.40;;;38.17;;
31808;SDS011;18379;48.208;-1.518;2022-12-18T16:30:28;46.73;;;34.33;;
31808;SDS011;18379;48.208;-1.518;2022-12-18T16:35:31;44.97;;;33.87;;
31808;SDS011;18379;48.208;-1.518;2022-12-18T16:40:32;43.63;;;33.93;;
31808;SDS011;18379;48.208;-1.518;2022-12-18T16:45:53;39.70;;;32.63;;
31808;SDS011;18379;48.208;-1.518;2022-12-18T16:51:03;36.37;;;30.87;;
31808;SDS011;18379;48.208;-1.518;2022-12-18T16:56:06;40.90;;;31.30;;
31808;SDS011;18379;48.208;-1.518;2022-12-18T17:01:10;35.30;;;31.00;;
31808;SDS011;18379;48.208;-1.518;2022-12-18T17:06:15;38.60;;;31.33;;
31808;SDS011;18379;48.208;-1.518;2022-12-18T17:11:21;38.63;;;32.50;;
31808;SDS011;18379;48.208;-1.518;2022-12-18T17:16:26;43.10;;;33.70;;
31808;SDS011;18379;48.208;-1.518;2022-12-18T17:21:28;40.77;;;33.80;;
31808;SDS011;18379;48.208;-1.518;2022-12-18T17:26:34;49.50;;;38.97;;
31808;SDS011;18379;48.208;-1.518;2022-12-18T17:31:36;42.80;;;37.30;;
31808;SDS011;18379;48.208;-1.518;2022-12-18T17:36:41;30.47;;;27.57;;
31808;SDS011;18379;48.208;-1.518;2022-12-18T17:41:43;32.37;;;29.10;;
31808;SDS011;18379;48.208;-1.518;2022-12-18T17:46:45;31.47;;;28.43;;
31808;SDS011;18379;48.208;-1.518;2022-12-18T17:51:46;32.57;;;29.33;;
31808;SDS011;18379;48.208;-1.518;2022-12-18T17:56:48;32.67;;;29.17;;
31808;SDS011;18379;48.208;-1.518;2022-12-18T18:02:00;36.57;;;32.67;;
31808;SDS011;18379;48.208;-1.518;2022-12-18T18:07:01;34.10;;;30.63;;
31808;SDS011;18379;48.208;-1.518;2022-12-18T18:12:05;33.77;;;30.47;;
31808;SDS011;18379;48.208;-1.518;2022-12-18T18:17:28;35.07;;;31.73;;
31808;SDS011;18379;48.208;-1.518;2022-12-18T18:22:33;39.47;;;33.50;;
31808;SDS011;18379;48.208;-1.518;2022-12-18T18:27:49;30.50;;;27.80;;
31808;SDS011;18379;48.208;-1.518;2022-12-18T18:32:59;36.03;;;31.77;;
31808;SDS011;18379;48.208;-1.518;2022-12-18T18:38:01;44.47;;;39.80;;
31808;SDS011;18379;48.208;-1.518;2022-12-18T18:43:03;36.50;;;32.70;;
31808;SDS011;18379;48.208;-1.518;2022-12-18T18:48:05;35.03;;;31.60;;
31808;SDS011;18379;48.208;-1.518;2022-12-18T18:53:06;34.27;;;30.93;;
31808;SDS011;18379;48.208;-1.518;2022-12-18T18:58:07;36.30;;;32.87;;
31808;SDS011;18379;48.208;-1.518;2022-12-18T19:03:07;32.80;;;29.60;;
31808;SDS011;18379;48.208;-1.518;2022-12-18T19:08:08;35.87;;;32.60;;
31808;SDS011;18379;48.208;-1.518;2022-12-18T19:13:12;31.97;;;29.07;;
31808;SDS011;18379;48.208;-1.518;2022-12-18T19:18:23;41.10;;;36.90;;
31808;SDS011;18379;48.208;-1.518;2022-12-18T19:23:25;44.70;;;39.87;;
31808;SDS011;18379;48.208;-1.518;2022-12-18T19:28:26;31.70;;;29.00;;
31808;SDS011;18379;48.208;-1.518;2022-12-18T19:33:32;35.73;;;31.90;;
31808;SDS011;18379;48.208;-1.518;2022-12-18T19:38:34;51.60;;;46.00;;
31808;SDS011;18379;48.208;-1.518;2022-12-18T19:43:36;51.70;;;46.13;;
31808;SDS011;18379;48.208;-1.518;2022-12-18T19:48:37;42.33;;;37.93;;
31808;SDS011;18379;48.208;-1.518;2022-12-18T19:53:38;32.87;;;29.83;;
31808;SDS011;18379;48.208;-1.518;2022-12-18T19:58:39;35.30;;;32.03;;
31808;SDS011;18379;48.208;-1.518;2022-12-18T20:03:40;38.00;;;34.67;;
31808;SDS011;18379;48.208;-1.518;2022-12-18T20:08:41;35.73;;;32.40;;
31808;SDS011;18379;48.208;-1.518;2022-12-18T20:13:41;30.77;;;28.20;;
31808;SDS011;18379;48.208;-1.518;2022-12-18T20:18:42;30.13;;;27.53;;
31808;SDS011;18379;48.208;-1.518;2022-12-18T20:23:43;31.90;;;29.37;;
31808;SDS011;18379;48.208;-1.518;2022-12-18T20:28:44;31.07;;;28.50;;
31808;SDS011;18379;48.208;-1.518;2022-12-18T20:33:45;31.70;;;28.97;;
31808;SDS011;18379;48.208;-1.518;2022-12-18T20:38:46;32.73;;;29.57;;
31808;SDS011;18379;48.208;-1.518;2022-12-18T20:43:48;32.10;;;29.40;;
31808;SDS011;18379;48.208;-1.518;2022-12-18T20:48:49;33.57;;;30.47;;
31808;SDS011;18379;48.208;-1.518;2022-12-18T20:53:50;35.33;;;32.00;;
31808;SDS011;18379;48.208;-1.518;2022-12-18T20:58:54;33.53;;;30.43;;
31808;SDS011;18379;48.208;-1.518;2022-12-18T21:03:56;49.07;;;44.03;;
31808;SDS011;18379;48.208;-1.518;2022-12-18T21:08:58;38.20;;;35.10;;
31808;SDS011;18379;48.208;-1.518;2022-12-18T21:13:59;43.00;;;38.60;;
31808;SDS011;18379;48.208;-1.518;2022-12-18T21:19:00;50.63;;;45.27;;
31808;SDS011;18379;48.208;-1.518;2022-12-18T21:24:02;45.67;;;40.27;;
31808;SDS011;18379;48.208;-1.518;2022-12-18T21:29:04;36.97;;;33.43;;
31808;SDS011;18379;48.208;-1.518;2022-12-18T21:34:07;31.37;;;28.57;;
31808;SDS011;18379;48.208;-1.518;2022-12-18T21:39:10;29.47;;;27.37;;
31808;SDS011;18379;48.208;-1.518;2022-12-18T21:44:12;34.60;;;31.73;;
31808;SDS011;18379;48.208;-1.518;2022-12-18T21:49:15;37.13;;;33.70;;
31808;SDS011;18379;48.208;-1.518;2022-12-18T21:54:17;38.13;;;34.57;;
31808;SDS011;18379;48.208;-1.518;2022-12-18T21:59:20;30.43;;;28.10;;
31808;SDS011;18379;48.208;-1.518;2022-12-18T22:04:21;36.83;;;33.50;;
31808;SDS011;18379;48.208;-1.518;2022-12-18T22:09:23;42.53;;;38.23;;
31808;SDS011;18379;48.208;-1.518;2022-12-18T22:14:25;46.07;;;41.83;;
31808;SDS011;18379;48.208;-1.518;2022-12-18T22:19:25;46.20;;;41.77;;
31808;SDS011;18379;48.208;-1.518;2022-12-18T22:24:26;49.23;;;44.57;;
31808;SDS011;18379;48.208;-1.518;2022-12-18T22:29:28;48.37;;;43.63;;
31808;SDS011;18379;48.208;-1.518;2022-12-18T22:34:48;28.67;;;26.70;;
31808;SDS011;18379;48.208;-1.518;2022-12-18T22:39:49;30.80;;;28.17;;
31808;SDS011;18379;48.208;-1.518;2022-12-18T22:44:49;30.33;;;27.93;;
31808;SDS011;18379;48.208;-1.518;2022-12-18T22:49:50;33.97;;;31.13;;
31808;SDS011;18379;48.208;-1.518;2022-12-18T22:54:51;36.80;;;33.40;;
31808;SDS011;18379;48.208;-1.518;2022-12-18T22:59:52;40.10;;;36.30;;
31808;SDS011;18379;48.208;-1.518;2022-12-18T23:04:54;46.23;;;41.23;;
31808;SDS011;18379;48.208;-1.518;2022-12-18T23:09:54;44.57;;;40.17;;
31808;SDS011;18379;48.208;-1.518;2022-12-18T23:14:55;47.30;;;42.50;;
31808;SDS011;18379;48.208;-1.518;2022-12-18T23:19:56;45.47;;;41.13;;
31808;SDS011;18379;48.208;-1.518;2022-12-18T23:24:57;46.63;;;41.73;;
31808;SDS011;18379;48.208;-1.518;2022-12-18T23:29:58;49.10;;;44.20;;
31808;SDS011;18379;48.208;-1.518;2022-12-18T23:34:58;48.73;;;43.83;;
31808;SDS011;18379;48.208;-1.518;2022-12-18T23:39:59;47.87;;;43.17;;
31808;SDS011;18379;48.208;-1.518;2022-12-18T23:45:00;48.70;;;43.90;;
31808;SDS011;18379;48.208;-1.518;2022-12-18T23:50:01;46.43;;;42.03;;
31808;SDS011;18379;48.208;-1.518;2022-12-18T23:55:02;47.20;;;42.37;;
